createdAt,value
2023-05-22T00:00:44.007Z,557.00
2023-05-22T00:01:43.994Z,553.00
2023-05-22T00:02:44.081Z,556.00
2023-05-22T00:03:44.009Z,559.00
2023-05-22T00:04:44.009Z,558.00
2023-05-22T00:05:44.048Z,560.00
2023-05-22T00:06:44.014Z,560.00
2023-05-22T00:07:43.996Z,555.00
2023-05-22T00:08:44.009Z,558.00
2023-05-22T00:09:43.980Z,557.00
2023-05-22T00:10:44.004Z,558.00
2023-05-22T00:11:43.999Z,556.00
2023-05-22T00:12:43.983Z,559.00
2023-05-22T00:13:43.986Z,552.00
2023-05-22T00:14:43.974Z,557.00
2023-05-22T00:15:44.022Z,558.00
2023-05-22T00:16:44.104Z,552.00
2023-05-22T00:17:44.061Z,557.00
2023-05-22T00:18:44.000Z,556.00
2023-05-22T00:19:43.989Z,560.00
2023-05-22T00:20:44.046Z,553.00
2023-05-22T00:21:43.996Z,556.00
2023-05-22T00:22:43.996Z,553.00
2023-05-22T00:23:44.014Z,558.00
2023-05-22T00:24:44.039Z,557.00
2023-05-22T00:25:44.029Z,554.00
2023-05-22T00:26:44.055Z,556.00
2023-05-22T00:27:44.084Z,553.00
2023-05-22T00:28:44.091Z,554.00
2023-05-22T00:29:44.162Z,559.00
2023-05-22T00:30:44.199Z,557.00
2023-05-22T00:31:44.228Z,552.00
2023-05-22T00:32:44.294Z,558.00
2023-05-22T00:33:44.286Z,555.00
2023-05-22T00:34:44.387Z,554.00
2023-05-22T00:35:44.385Z,552.00
2023-05-22T00:36:44.351Z,554.00
2023-05-22T00:37:44.413Z,556.00
2023-05-22T00:38:44.421Z,551.00
2023-05-22T00:39:44.463Z,554.00
2023-05-22T00:40:44.426Z,557.00
2023-05-22T00:41:44.469Z,556.00
2023-05-22T00:42:44.492Z,554.00
2023-05-22T00:43:44.500Z,551.00
2023-05-22T00:44:44.481Z,552.00
2023-05-22T00:45:44.486Z,551.00
2023-05-22T00:46:44.565Z,560.00
2023-05-22T00:47:44.542Z,553.00
2023-05-22T00:48:44.521Z,552.00
2023-05-22T00:49:44.534Z,555.00
2023-05-22T00:50:44.541Z,555.00
2023-05-22T00:51:44.578Z,551.00
2023-05-22T00:52:44.576Z,555.00
2023-05-22T00:53:44.550Z,551.00
2023-05-22T00:54:44.582Z,553.00
2023-05-22T00:55:44.652Z,553.00
2023-05-22T00:56:44.643Z,555.00
2023-05-22T00:57:44.630Z,555.00
2023-05-22T00:58:44.635Z,551.00
2023-05-22T00:59:44.651Z,550.00
2023-05-22T01:00:44.634Z,554.00
2023-05-22T01:01:44.753Z,558.00
2023-05-22T01:02:44.797Z,552.00
2023-05-22T01:03:44.781Z,551.00
2023-05-22T01:04:44.692Z,554.00
2023-05-22T01:05:44.697Z,554.00
2023-05-22T01:06:44.702Z,553.00
2023-05-22T01:07:44.738Z,554.00
2023-05-22T01:08:44.772Z,549.00
2023-05-22T01:09:44.747Z,555.00
2023-05-22T01:10:44.742Z,550.00
2023-05-22T01:11:44.783Z,553.00
2023-05-22T01:12:44.789Z,555.00
2023-05-22T01:13:44.805Z,551.00
2023-05-22T01:14:44.796Z,551.00
2023-05-22T01:15:44.829Z,553.00
2023-05-22T01:16:44.931Z,557.00
2023-05-22T01:17:44.896Z,555.00
2023-05-22T01:18:44.846Z,554.00
2023-05-22T01:19:44.832Z,550.00
2023-05-22T01:20:46.563Z,549.00
2023-05-22T01:21:44.851Z,552.00
2023-05-22T01:22:44.817Z,553.00
2023-05-22T01:23:44.819Z,549.00
2023-05-22T01:24:44.802Z,549.00
2023-05-22T01:25:44.809Z,553.00
2023-05-22T01:26:44.796Z,552.00
2023-05-22T01:27:44.789Z,549.00
2023-05-22T01:28:44.802Z,557.00
2023-05-22T01:29:44.774Z,547.00
2023-05-22T01:30:44.782Z,549.00
2023-05-22T01:31:44.770Z,548.00
2023-05-22T01:32:44.867Z,554.00
2023-05-22T01:33:44.903Z,549.00
2023-05-22T01:34:44.752Z,550.00
2023-05-22T01:35:44.804Z,549.00
2023-05-22T01:36:44.748Z,547.00
2023-05-22T01:37:44.717Z,553.00
2023-05-22T01:38:44.715Z,552.00
2023-05-22T01:39:44.726Z,553.00
2023-05-22T01:40:44.729Z,550.00
2023-05-22T01:41:44.778Z,546.00
2023-05-22T01:42:44.676Z,549.00
2023-05-22T01:43:44.699Z,549.00
2023-05-22T01:44:44.700Z,550.00
2023-05-22T01:45:44.732Z,550.00
2023-05-22T01:46:44.691Z,551.00
2023-05-22T01:47:44.705Z,546.00
2023-05-22T01:48:44.681Z,541.00
2023-05-22T01:49:44.662Z,542.00
2023-05-22T01:50:44.629Z,547.00
2023-05-22T01:51:44.658Z,549.00
2023-05-22T01:52:44.650Z,545.00
2023-05-22T01:53:44.659Z,544.00
2023-05-22T01:54:44.628Z,551.00
2023-05-22T01:55:44.607Z,548.00
2023-05-22T01:56:44.611Z,540.00
2023-05-22T01:57:44.645Z,548.00
2023-05-22T01:58:44.583Z,547.00
2023-05-22T01:59:44.600Z,544.00
2023-05-22T02:00:44.580Z,542.00
2023-05-22T02:01:44.694Z,542.00
2023-05-22T02:02:44.659Z,539.00
2023-05-22T02:03:44.610Z,545.00
2023-05-22T02:04:44.590Z,546.00
2023-05-22T02:05:44.579Z,542.00
2023-05-22T02:06:44.552Z,547.00
2023-05-22T02:07:44.514Z,547.00
2023-05-22T02:08:44.522Z,542.00
2023-05-22T02:09:44.528Z,546.00
2023-05-22T02:10:44.537Z,546.00
2023-05-22T02:11:44.509Z,546.00
2023-05-22T02:12:44.500Z,542.00
2023-05-22T02:13:44.497Z,539.00
2023-05-22T02:14:44.506Z,544.00
2023-05-22T02:15:44.576Z,545.00
2023-05-22T02:16:44.484Z,541.00
2023-05-22T02:17:44.562Z,545.00
2023-05-22T02:18:44.540Z,537.00
2023-05-22T02:19:44.493Z,537.00
2023-05-22T02:20:44.500Z,539.00
2023-05-22T02:21:44.478Z,544.00
2023-05-22T02:22:44.531Z,542.00
2023-05-22T02:23:44.434Z,544.00
2023-05-22T02:24:44.440Z,540.00
2023-05-22T02:25:44.434Z,545.00
2023-05-22T02:26:44.444Z,545.00
2023-05-22T02:27:44.391Z,537.00
2023-05-22T02:28:44.428Z,543.00
2023-05-22T02:29:44.400Z,542.00
2023-05-22T02:30:44.408Z,544.00
2023-05-22T02:31:44.553Z,542.00
2023-05-22T02:32:44.421Z,538.00
2023-05-22T02:33:44.355Z,540.00
2023-05-22T02:34:44.368Z,541.00
2023-05-22T02:35:44.365Z,546.00
2023-05-22T02:36:44.405Z,544.00
2023-05-22T02:37:44.307Z,540.00
2023-05-22T02:38:44.329Z,541.00
2023-05-22T02:39:44.327Z,546.00
2023-05-22T02:40:44.302Z,539.00
2023-05-22T02:41:44.311Z,544.00
2023-05-22T02:42:44.278Z,543.00
2023-05-22T02:43:44.301Z,541.00
2023-05-22T02:44:44.301Z,548.00
2023-05-22T02:45:44.270Z,547.00
2023-05-22T02:46:44.303Z,540.00
2023-05-22T02:47:44.331Z,544.00
2023-05-22T02:48:44.260Z,541.00
2023-05-22T02:49:44.273Z,541.00
2023-05-22T02:50:44.256Z,542.00
2023-05-22T02:51:44.219Z,541.00
2023-05-22T02:52:44.242Z,543.00
2023-05-22T02:53:44.212Z,539.00
2023-05-22T02:54:44.233Z,544.00
2023-05-22T02:55:44.249Z,541.00
2023-05-22T02:56:44.236Z,545.00
2023-05-22T02:57:44.212Z,543.00
2023-05-22T02:58:44.186Z,542.00
2023-05-22T02:59:44.190Z,542.00
2023-05-22T03:00:44.147Z,545.00
2023-05-22T03:01:44.282Z,541.00
2023-05-22T03:02:44.232Z,545.00
2023-05-22T03:03:44.210Z,544.00
2023-05-22T03:04:44.187Z,548.00
2023-05-22T03:05:44.134Z,541.00
2023-05-22T03:06:44.171Z,543.00
2023-05-22T03:07:45.946Z,542.00
2023-05-22T03:08:44.154Z,542.00
2023-05-22T03:09:44.119Z,542.00
2023-05-22T03:10:44.115Z,543.00
2023-05-22T03:11:44.131Z,541.00
2023-05-22T03:12:44.173Z,544.00
2023-05-22T03:13:44.080Z,538.00
2023-05-22T03:14:44.067Z,541.00
2023-05-22T03:15:44.113Z,541.00
2023-05-22T03:16:44.159Z,543.00
2023-05-22T03:17:44.098Z,544.00
2023-05-22T03:18:44.100Z,540.00
2023-05-22T03:19:44.137Z,542.00
2023-05-22T03:20:44.093Z,541.00
2023-05-22T03:21:44.038Z,541.00
2023-05-22T03:22:44.096Z,545.00
2023-05-22T03:23:44.050Z,543.00
2023-05-22T03:24:44.024Z,542.00
2023-05-22T03:25:44.030Z,538.00
2023-05-22T03:26:44.093Z,540.00
2023-05-22T03:27:43.989Z,541.00
2023-05-22T03:28:44.201Z,537.00
2023-05-22T03:29:43.980Z,541.00
2023-05-22T03:30:43.997Z,536.00
2023-05-22T03:31:43.970Z,542.00
2023-05-22T03:32:44.012Z,537.00
2023-05-22T03:33:43.988Z,538.00
2023-05-22T03:34:43.940Z,541.00
2023-05-22T03:35:43.971Z,539.00
2023-05-22T03:36:43.934Z,538.00
2023-05-22T03:37:43.945Z,539.00
2023-05-22T03:38:43.950Z,539.00
2023-05-22T03:39:43.922Z,536.00
2023-05-22T03:40:43.923Z,536.00
2023-05-22T03:41:43.931Z,535.00
2023-05-22T03:42:43.921Z,538.00
2023-05-22T03:43:45.183Z,533.00
2023-05-22T03:44:43.896Z,543.00
2023-05-22T03:45:43.957Z,542.00
2023-05-22T03:46:43.872Z,542.00
2023-05-22T03:47:43.904Z,539.00
2023-05-22T03:48:43.866Z,538.00
2023-05-22T03:49:43.882Z,539.00
2023-05-22T03:50:43.830Z,539.00
2023-05-22T03:51:43.902Z,538.00
2023-05-22T03:52:43.838Z,536.00
2023-05-22T03:53:43.850Z,540.00
2023-05-22T03:54:43.820Z,533.00
2023-05-22T03:55:43.782Z,537.00
2023-05-22T03:56:43.826Z,533.00
2023-05-22T03:57:43.825Z,537.00
2023-05-22T03:58:43.809Z,538.00
2023-05-22T03:59:43.779Z,536.00
2023-05-22T04:00:43.795Z,538.00
2023-05-22T04:01:43.763Z,541.00
2023-05-22T04:02:43.845Z,537.00
2023-05-22T04:03:43.812Z,532.00
2023-05-22T04:04:43.830Z,519.00
2023-05-22T04:05:43.722Z,511.00
2023-05-22T04:06:43.746Z,502.00
2023-05-22T04:07:43.727Z,501.00
2023-05-22T04:08:43.739Z,500.00
2023-05-22T04:09:43.727Z,502.00
2023-05-22T04:10:43.708Z,500.00
2023-05-22T04:11:43.713Z,496.00
2023-05-22T04:12:44.541Z,500.00
2023-05-22T04:13:43.671Z,501.00
2023-05-22T04:14:43.679Z,500.00
2023-05-22T04:15:43.701Z,501.00
2023-05-22T04:16:43.701Z,507.00
2023-05-22T04:17:43.700Z,501.00
2023-05-22T04:18:43.696Z,499.00
2023-05-22T04:19:43.665Z,500.00
2023-05-22T04:20:43.643Z,498.00
2023-05-22T04:21:43.684Z,500.00
2023-05-22T04:22:43.630Z,502.00
2023-05-22T04:23:43.694Z,500.00
2023-05-22T04:24:43.610Z,502.00
2023-05-22T04:25:43.579Z,500.00
2023-05-22T04:26:43.618Z,502.00
2023-05-22T04:27:43.600Z,500.00
2023-05-22T04:28:43.588Z,502.00
2023-05-22T04:29:43.569Z,500.00
2023-05-22T04:30:43.574Z,503.00
2023-05-22T04:31:43.628Z,502.00
2023-05-22T04:32:43.578Z,503.00
2023-05-22T04:33:43.528Z,500.00
2023-05-22T04:34:43.539Z,501.00
2023-05-22T04:35:43.522Z,510.00
2023-05-22T04:36:43.536Z,504.00
2023-05-22T04:37:43.558Z,510.00
2023-05-22T04:38:43.550Z,514.00
2023-05-22T04:39:43.507Z,515.00
2023-05-22T04:40:43.512Z,515.00
2023-05-22T04:41:43.503Z,512.00
2023-05-22T04:42:43.479Z,517.00
2023-05-22T04:43:43.496Z,518.00
2023-05-22T04:44:43.634Z,515.00
2023-05-22T04:45:43.570Z,518.00
2023-05-22T04:46:43.699Z,511.00
2023-05-22T04:47:43.745Z,516.00
2023-05-22T04:48:43.713Z,520.00
2023-05-22T04:49:43.796Z,516.00
2023-05-22T04:50:43.780Z,521.00
2023-05-22T04:51:43.826Z,523.00
2023-05-22T04:52:43.889Z,521.00
2023-05-22T04:53:43.921Z,522.00
2023-05-22T04:54:43.953Z,520.00
2023-05-22T04:55:43.982Z,522.00
2023-05-22T04:56:44.020Z,523.00
2023-05-22T04:57:44.073Z,525.00
2023-05-22T04:58:44.139Z,524.00
2023-05-22T04:59:44.146Z,523.00
2023-05-22T05:00:44.224Z,529.00
2023-05-22T05:01:44.342Z,530.00
2023-05-22T05:02:44.291Z,530.00
2023-05-22T05:03:44.379Z,524.00
2023-05-22T05:04:44.387Z,526.00
2023-05-22T05:05:44.418Z,524.00
2023-05-22T05:06:44.449Z,529.00
2023-05-22T05:07:44.536Z,522.00
2023-05-22T05:08:44.536Z,522.00
2023-05-22T05:09:44.630Z,524.00
2023-05-22T05:10:44.624Z,521.00
2023-05-22T05:11:44.742Z,522.00
2023-05-22T05:12:44.862Z,522.00
2023-05-22T05:13:44.772Z,519.00
2023-05-22T05:14:44.865Z,516.00
2023-05-22T05:15:44.862Z,522.00
2023-05-22T05:16:44.960Z,522.00
2023-05-22T05:17:44.950Z,520.00
2023-05-22T05:18:45.035Z,524.00
2023-05-22T05:19:45.099Z,522.00
2023-05-22T05:20:45.153Z,518.00
2023-05-22T05:21:45.151Z,520.00
2023-05-22T05:22:45.221Z,521.00
2023-05-22T05:23:45.259Z,525.00
2023-05-22T05:24:45.334Z,525.00
2023-05-22T05:25:45.400Z,526.00
2023-05-22T05:26:45.478Z,525.00
2023-05-22T05:27:45.445Z,525.00
2023-05-22T05:28:45.535Z,522.00
2023-05-22T05:29:45.572Z,523.00
2023-05-22T05:30:45.631Z,522.00
2023-05-22T05:31:45.735Z,528.00
2023-05-22T05:32:45.746Z,525.00
2023-05-22T05:33:45.752Z,523.00
2023-05-22T05:34:46.278Z,501.00
2023-05-22T05:35:45.896Z,502.00
2023-05-22T05:36:45.890Z,501.00
2023-05-22T05:37:45.879Z,513.00
2023-05-22T05:38:45.897Z,504.00
2023-05-22T05:39:45.957Z,502.00
2023-05-22T05:40:46.008Z,504.00
2023-05-22T05:41:46.006Z,500.00
2023-05-22T05:42:46.113Z,497.00
2023-05-22T05:43:46.086Z,500.00
2023-05-22T05:44:46.108Z,502.00
2023-05-22T05:45:46.140Z,530.00
2023-05-22T05:46:46.168Z,546.00
2023-05-22T05:47:46.187Z,546.00
2023-05-22T05:48:46.156Z,542.00
2023-05-22T05:49:46.159Z,548.00
2023-05-22T05:50:46.271Z,560.00
2023-05-22T05:51:46.202Z,566.00
2023-05-22T05:52:46.209Z,577.00
2023-05-22T05:53:46.275Z,585.00
2023-05-22T05:54:46.384Z,593.00
2023-05-22T05:55:46.350Z,612.00
2023-05-22T05:56:46.417Z,621.00
2023-05-22T05:57:46.439Z,620.00
2023-05-22T05:58:46.506Z,618.00
2023-05-22T05:59:46.480Z,625.00
2023-05-22T06:00:46.515Z,625.00
2023-05-22T06:01:46.506Z,617.00
2023-05-22T06:02:48.878Z,633.00
2023-05-22T06:03:46.585Z,635.00
2023-05-22T06:04:46.512Z,630.00
2023-05-22T06:05:46.524Z,645.00
2023-05-22T06:06:46.490Z,658.00
2023-05-22T06:07:46.516Z,650.00
2023-05-22T06:08:46.461Z,651.00
2023-05-22T06:09:46.497Z,649.00
2023-05-22T06:10:46.489Z,653.00
2023-05-22T06:11:46.495Z,654.00
2023-05-22T06:12:46.449Z,667.00
2023-05-22T06:13:46.418Z,712.00
2023-05-22T06:14:46.443Z,705.00
2023-05-22T06:15:46.440Z,713.00
2023-05-22T06:16:46.661Z,736.00
2023-05-22T06:17:46.504Z,738.00
2023-05-22T06:18:46.426Z,769.00
2023-05-22T06:19:46.414Z,711.00
2023-05-22T06:20:46.374Z,703.00
2023-05-22T06:21:46.366Z,728.00
2023-05-22T06:22:46.354Z,702.00
2023-05-22T06:23:46.369Z,698.00
2023-05-22T06:24:46.464Z,709.00
2023-05-22T06:25:46.405Z,697.00
2023-05-22T06:26:46.363Z,676.00
2023-05-22T06:27:46.331Z,716.00
2023-05-22T06:28:46.334Z,679.00
2023-05-22T06:29:46.335Z,683.00
2023-05-22T06:30:46.516Z,664.00
2023-05-22T06:31:46.382Z,679.00
2023-05-22T06:32:46.476Z,666.00
2023-05-22T06:33:46.476Z,674.00
2023-05-22T06:34:46.354Z,670.00
2023-05-22T06:35:46.608Z,661.00
2023-05-22T06:36:46.406Z,657.00
2023-05-22T06:37:46.493Z,654.00
2023-05-22T06:38:46.539Z,687.00
2023-05-22T06:39:46.559Z,691.00
2023-05-22T06:40:46.658Z,736.00
2023-05-22T06:41:46.636Z,779.00
2023-05-22T06:42:46.645Z,775.00
2023-05-22T06:43:46.716Z,728.00
2023-05-22T06:44:46.736Z,716.00
2023-05-22T06:45:46.807Z,708.00
2023-05-22T06:46:46.761Z,666.00
2023-05-22T06:47:46.934Z,657.00
2023-05-22T06:48:46.873Z,678.00
2023-05-22T06:49:46.906Z,644.00
2023-05-22T06:50:47.023Z,642.00
2023-05-22T06:51:47.030Z,628.00
2023-05-22T06:52:47.102Z,622.00
2023-05-22T06:53:47.151Z,602.00
2023-05-22T06:54:47.229Z,598.00
2023-05-22T06:55:47.314Z,583.00
2023-05-22T06:56:47.310Z,569.00
2023-05-22T06:57:47.345Z,570.00
2023-05-22T06:58:47.366Z,575.00
2023-05-22T06:59:47.376Z,556.00
2023-05-22T07:00:47.382Z,542.00
2023-05-22T07:01:47.446Z,534.00
2023-05-22T07:02:47.521Z,500.00
2023-05-22T07:03:47.459Z,504.00
2023-05-22T07:04:47.460Z,505.00
2023-05-22T07:05:47.537Z,511.00
2023-05-22T07:06:47.398Z,516.00
2023-05-22T07:07:47.516Z,500.00
2023-05-22T07:08:47.534Z,505.00
2023-05-22T07:09:47.594Z,507.00
2023-05-22T07:10:47.645Z,523.00
2023-05-22T07:11:47.706Z,528.00
2023-05-22T07:12:47.747Z,542.00
2023-05-22T07:13:47.849Z,548.00
2023-05-22T07:14:47.862Z,551.00
2023-05-22T07:15:47.902Z,524.00
2023-05-22T07:16:48.087Z,507.00
2023-05-22T07:17:48.097Z,504.00
2023-05-22T07:18:48.095Z,503.00
2023-05-22T07:19:48.100Z,502.00
2023-05-22T07:20:48.189Z,502.00
2023-05-22T07:21:48.231Z,506.00
2023-05-22T07:22:48.311Z,501.00
2023-05-22T07:23:48.275Z,510.00
2023-05-22T07:24:48.346Z,500.00
2023-05-22T07:25:48.386Z,500.00
2023-05-22T07:26:48.488Z,514.00
2023-05-22T07:27:48.477Z,513.00
2023-05-22T07:28:48.657Z,506.00
2023-05-22T07:29:48.514Z,507.00
2023-05-22T07:30:48.641Z,503.00
2023-05-22T07:31:48.632Z,513.00
2023-05-22T07:32:49.247Z,527.00
2023-05-22T07:33:48.638Z,526.00
2023-05-22T07:34:48.691Z,533.00
2023-05-22T07:35:48.696Z,535.00
2023-05-22T07:36:48.733Z,537.00
2023-05-22T07:37:48.743Z,565.00
2023-05-22T07:38:48.812Z,580.00
2023-05-22T07:39:48.816Z,591.00
2023-05-22T07:40:48.850Z,608.00
2023-05-22T07:41:48.839Z,613.00
2023-05-22T07:42:48.897Z,605.00
2023-05-22T07:43:48.897Z,620.00
2023-05-22T07:44:49.063Z,621.00
2023-05-22T07:45:48.951Z,629.00
2023-05-22T07:46:48.905Z,635.00
2023-05-22T07:47:48.926Z,641.00
2023-05-22T07:48:48.896Z,653.00
2023-05-22T07:49:48.951Z,666.00
2023-05-22T07:50:48.958Z,675.00
2023-05-22T07:51:48.920Z,686.00
2023-05-22T07:52:48.930Z,687.00
2023-05-22T07:53:48.911Z,666.00
2023-05-22T07:54:48.927Z,658.00
2023-05-22T07:55:48.935Z,660.00
2023-05-22T07:56:48.948Z,671.00
2023-05-22T07:57:48.914Z,705.00
2023-05-22T07:58:48.908Z,739.00
2023-05-22T07:59:48.977Z,770.00
2023-05-22T08:00:49.286Z,736.00
2023-05-22T08:01:48.925Z,745.00
2023-05-22T08:02:49.049Z,808.00
2023-05-22T08:03:49.071Z,747.00
2023-05-22T08:04:49.167Z,743.00
2023-05-22T08:05:49.273Z,754.00
2023-05-22T08:06:49.002Z,758.00
2023-05-22T08:07:48.970Z,736.00
2023-05-22T08:08:48.995Z,734.00
2023-05-22T08:09:48.981Z,720.00
2023-05-22T08:11:48.990Z,733.00
2023-05-22T08:12:48.966Z,727.00
2023-05-22T08:13:48.954Z,745.00
2023-05-22T08:14:48.957Z,713.00
2023-05-22T08:15:48.981Z,685.00
2023-05-22T08:16:49.066Z,692.00
2023-05-22T08:17:49.067Z,678.00
2023-05-22T08:18:48.996Z,684.00
2023-05-22T08:19:48.956Z,664.00
2023-05-22T08:20:48.900Z,659.00
2023-05-22T08:21:48.960Z,636.00
2023-05-22T08:22:48.936Z,620.00
2023-05-22T08:23:48.876Z,616.00
2023-05-22T08:24:49.145Z,618.00
2023-05-22T08:25:48.892Z,618.00
2023-05-22T08:26:48.878Z,578.00
2023-05-22T08:27:48.840Z,552.00
2023-05-22T08:28:48.869Z,536.00
2023-05-22T08:29:49.166Z,513.00
2023-05-22T08:30:48.844Z,502.00
2023-05-22T08:31:48.942Z,504.00
2023-05-22T08:32:48.926Z,503.00
2023-05-22T08:33:48.821Z,500.00
2023-05-22T08:34:48.838Z,500.00
2023-05-22T08:35:49.143Z,499.00
2023-05-22T08:36:48.826Z,500.00
2023-05-22T08:37:48.753Z,500.00
2023-05-22T08:38:48.773Z,501.00
2023-05-22T08:39:49.480Z,501.00
2023-05-22T08:40:48.968Z,500.00
2023-05-22T08:41:48.771Z,533.00
2023-05-22T08:42:48.806Z,553.00
2023-05-22T08:43:48.747Z,580.00
2023-05-22T08:44:48.745Z,574.00
2023-05-22T08:45:48.804Z,564.00
2023-05-22T08:46:49.194Z,575.00
2023-05-22T08:47:48.810Z,593.00
2023-05-22T08:48:49.007Z,601.00
2023-05-22T08:49:48.719Z,613.00
2023-05-22T08:50:48.708Z,623.00
2023-05-22T08:51:48.685Z,626.00
2023-05-22T08:52:48.703Z,646.00
2023-05-22T08:53:49.161Z,652.00
2023-05-22T08:54:48.714Z,647.00
2023-05-22T08:55:48.683Z,639.00
2023-05-22T08:56:56.344Z,651.00
2023-05-22T08:57:49.670Z,628.00
2023-05-22T08:58:48.701Z,651.00
2023-05-22T08:59:48.663Z,626.00
2023-05-22T09:00:49.717Z,642.00
2023-05-22T09:01:48.714Z,637.00
2023-05-22T09:02:48.738Z,644.00
2023-05-22T09:03:48.688Z,658.00
2023-05-22T09:04:48.672Z,676.00
2023-05-22T09:05:48.605Z,652.00
2023-05-22T09:06:48.633Z,694.00
2023-05-22T09:07:48.634Z,665.00
2023-05-22T09:08:50.047Z,655.00
2023-05-22T09:09:48.582Z,707.00
2023-05-22T09:10:48.595Z,678.00
2023-05-22T09:11:48.571Z,687.00
2023-05-22T09:12:48.675Z,679.00
2023-05-22T09:13:48.539Z,729.00
2023-05-22T09:14:48.533Z,723.00
2023-05-22T09:15:48.569Z,729.00
2023-05-22T09:16:48.635Z,761.00
2023-05-22T09:17:48.708Z,766.00
2023-05-22T09:18:48.528Z,723.00
2023-05-22T09:19:48.557Z,674.00
2023-05-22T09:20:48.549Z,702.00
2023-05-22T09:21:48.498Z,712.00
2023-05-22T09:22:48.516Z,776.00
2023-05-22T09:23:48.525Z,790.00
2023-05-22T09:24:48.532Z,830.00
2023-05-22T09:25:48.534Z,825.00
2023-05-22T09:26:48.679Z,836.00
2023-05-22T09:27:48.498Z,880.00
2023-05-22T09:28:48.493Z,903.00
2023-05-22T09:29:48.502Z,932.00
2023-05-22T09:30:48.510Z,988.00
2023-05-22T09:31:48.563Z,1008.00
2023-05-22T09:32:48.578Z,934.00
2023-05-22T09:33:48.451Z,804.00
2023-05-22T09:34:48.710Z,534.00
2023-05-22T09:35:48.448Z,400.00
2023-05-22T09:36:48.429Z,422.00
2023-05-22T09:37:48.406Z,400.00
2023-05-22T09:38:48.358Z,400.00
2023-05-22T09:39:48.409Z,400.00
2023-05-22T09:40:48.668Z,400.00
2023-05-22T09:41:48.376Z,400.00
2023-05-22T09:42:48.336Z,462.00
2023-05-22T09:43:48.341Z,549.00
2023-05-22T09:44:48.338Z,587.00
2023-05-22T09:45:48.356Z,606.00
2023-05-22T09:46:48.597Z,640.00
2023-05-22T09:47:48.328Z,655.00
2023-05-22T09:48:48.296Z,662.00
2023-05-22T09:49:48.309Z,653.00
2023-05-22T09:50:48.295Z,650.00
2023-05-22T09:51:48.668Z,653.00
2023-05-22T09:52:48.300Z,721.00
2023-05-22T09:53:48.678Z,704.00
2023-05-22T09:54:48.324Z,767.00
2023-05-22T09:55:48.333Z,761.00
2023-05-22T09:56:48.290Z,762.00
2023-05-22T09:57:48.316Z,807.00
2023-05-22T09:58:48.259Z,833.00
2023-05-22T09:59:48.261Z,881.00
2023-05-22T10:00:48.226Z,868.00
2023-05-22T10:01:48.259Z,957.00
2023-05-22T10:02:48.317Z,914.00
2023-05-22T10:03:49.565Z,918.00
2023-05-22T10:04:48.276Z,937.00
2023-05-22T10:05:48.225Z,918.00
2023-05-22T10:06:48.201Z,1014.00
2023-05-22T10:07:48.196Z,1064.00
2023-05-22T10:08:48.236Z,1097.00
2023-05-22T10:09:48.217Z,1163.00
2023-05-22T10:10:48.227Z,1242.00
2023-05-22T10:11:48.158Z,1325.00
2023-05-22T10:12:48.196Z,1377.00
2023-05-22T10:13:48.187Z,1387.00
2023-05-22T10:14:48.166Z,1423.00
2023-05-22T10:15:48.217Z,1450.00
2023-05-22T10:16:48.153Z,1523.00
2023-05-22T10:17:48.203Z,1518.00
2023-05-22T10:18:48.208Z,1589.00
2023-05-22T10:19:48.182Z,1673.00
2023-05-22T10:20:48.123Z,1650.00
2023-05-22T10:21:48.109Z,1663.00
2023-05-22T10:22:48.096Z,1743.00
2023-05-22T10:23:48.120Z,1726.00
2023-05-22T10:24:48.317Z,1715.00
2023-05-22T10:25:48.070Z,1716.00
2023-05-22T10:26:48.122Z,1793.00
2023-05-22T10:27:48.073Z,1387.00
2023-05-22T10:28:48.066Z,1042.00
2023-05-22T10:29:48.081Z,789.00
2023-05-22T10:30:48.062Z,665.00
2023-05-22T10:31:48.030Z,611.00
2023-05-22T10:32:48.089Z,605.00
2023-05-22T10:33:48.138Z,567.00
2023-05-22T10:34:48.025Z,536.00
2023-05-22T10:35:48.034Z,497.00
2023-05-22T10:36:48.345Z,527.00
2023-05-22T10:37:48.035Z,588.00
2023-05-22T10:38:48.028Z,595.00
2023-05-22T10:39:48.623Z,579.00
2023-05-22T10:40:48.342Z,613.00
2023-05-22T10:41:48.038Z,640.00
2023-05-22T10:42:48.038Z,622.00
2023-05-22T10:43:48.038Z,631.00
2023-05-22T10:44:47.992Z,628.00
2023-05-22T10:45:48.117Z,538.00
2023-05-22T10:46:48.025Z,500.00
2023-05-22T10:47:48.025Z,488.00
2023-05-22T10:48:48.088Z,445.00
2023-05-22T10:49:48.088Z,500.00
2023-05-22T10:50:48.045Z,519.00
2023-05-22T10:51:48.102Z,507.00
2023-05-22T10:52:48.059Z,500.00
2023-05-22T10:53:48.131Z,500.00
2023-05-22T10:54:48.116Z,500.00
2023-05-22T10:55:48.129Z,513.00
2023-05-22T10:56:48.240Z,561.00
2023-05-22T10:57:48.146Z,543.00
2023-05-22T10:58:48.151Z,591.00
2023-05-22T10:59:48.157Z,644.00
2023-05-22T11:00:48.162Z,681.00
2023-05-22T11:01:48.266Z,717.00
2023-05-22T11:02:48.232Z,796.00
2023-05-22T11:03:48.317Z,793.00
2023-05-22T11:04:48.300Z,772.00
2023-05-22T11:05:48.292Z,659.00
2023-05-22T11:06:48.341Z,658.00
2023-05-22T11:07:48.383Z,666.00
2023-05-22T11:08:48.465Z,646.00
2023-05-22T11:09:48.653Z,651.00
2023-05-22T11:10:48.565Z,734.00
2023-05-22T11:11:48.588Z,795.00
2023-05-22T11:12:48.693Z,904.00
2023-05-22T11:13:48.762Z,887.00
2023-05-22T11:14:48.799Z,981.00
2023-05-22T11:15:48.885Z,1025.00
2023-05-22T11:16:48.987Z,1089.00
2023-05-22T11:17:49.077Z,1219.00
2023-05-22T11:18:49.035Z,1308.00
2023-05-22T11:19:49.198Z,1361.00
2023-05-22T11:20:49.226Z,1531.00
2023-05-22T11:21:49.268Z,1626.00
2023-05-22T11:22:49.270Z,1693.00
2023-05-22T11:23:49.375Z,1648.00
2023-05-22T11:24:49.779Z,1613.00
2023-05-22T11:25:49.458Z,1571.00
2023-05-22T11:26:49.528Z,1560.00
2023-05-22T11:27:49.576Z,1560.00
2023-05-22T11:28:49.738Z,1545.00
2023-05-22T11:29:49.689Z,1546.00
2023-05-22T11:30:49.790Z,1536.00
2023-05-22T11:31:49.804Z,1545.00
2023-05-22T11:32:49.861Z,1515.00
2023-05-22T11:33:49.822Z,1481.00
2023-05-22T11:34:49.819Z,1444.00
2023-05-22T11:35:49.927Z,1464.00
2023-05-22T11:36:49.890Z,1450.00
2023-05-22T11:37:49.923Z,1412.00
2023-05-22T11:38:49.899Z,1467.00
2023-05-22T11:39:49.863Z,1433.00
2023-05-22T11:40:49.850Z,1420.00
2023-05-22T11:41:49.877Z,1377.00
2023-05-22T11:42:49.866Z,1374.00
2023-05-22T11:43:49.889Z,1329.00
2023-05-22T11:44:49.959Z,1343.00
2023-05-22T11:45:49.858Z,1308.00
2023-05-22T11:46:49.920Z,1312.00
2023-05-22T11:47:49.941Z,1302.00
2023-05-22T11:48:49.845Z,1281.00
2023-05-22T11:49:49.880Z,1286.00
2023-05-22T11:50:49.834Z,1261.00
2023-05-22T11:51:49.841Z,1272.00
2023-05-22T11:52:49.867Z,1279.00
2023-05-22T11:53:49.871Z,1260.00
2023-05-22T11:54:49.870Z,1307.00
2023-05-22T11:55:49.785Z,1293.00
2023-05-22T11:56:49.800Z,1284.00
2023-05-22T11:57:49.825Z,1282.00
2023-05-22T11:58:49.822Z,1274.00
2023-05-22T11:59:49.830Z,1221.00
2023-05-22T12:00:49.972Z,1184.00
2023-05-22T12:01:49.805Z,1143.00
2023-05-22T12:02:49.931Z,1093.00
2023-05-22T12:03:49.886Z,1095.00
2023-05-22T12:04:49.825Z,1087.00
2023-05-22T12:05:49.796Z,1075.00
2023-05-22T12:06:49.909Z,1090.00
2023-05-22T12:07:49.789Z,1164.00
2023-05-22T12:08:49.781Z,1165.00
2023-05-22T12:09:49.840Z,1194.00
2023-05-22T12:10:49.821Z,1264.00
2023-05-22T12:11:49.801Z,1318.00
2023-05-22T12:12:49.891Z,1354.00
2023-05-22T12:13:49.914Z,1365.00
2023-05-22T12:14:50.040Z,1427.00
2023-05-22T12:15:49.998Z,1464.00
2023-05-22T12:16:50.131Z,1509.00
2023-05-22T12:17:50.221Z,1531.00
2023-05-22T12:18:50.206Z,1585.00
2023-05-22T12:19:50.240Z,1592.00
2023-05-22T12:20:50.295Z,1634.00
2023-05-22T12:21:50.389Z,1694.00
2023-05-22T12:22:50.457Z,1726.00
2023-05-22T12:23:50.481Z,1765.00
2023-05-22T12:24:50.503Z,1793.00
2023-05-22T12:25:50.585Z,1814.00
2023-05-22T12:26:50.616Z,1838.00